createdAt,value
2023-05-07T00:00:15.075Z,12.87
2023-05-07T00:01:15.278Z,12.75
2023-05-07T00:02:15.035Z,12.75
2023-05-07T00:03:15.232Z,12.80
2023-05-07T00:04:15.168Z,12.82
2023-05-07T00:05:16.238Z,12.82
2023-05-07T00:06:15.003Z,12.67
2023-05-07T00:07:14.999Z,12.78
2023-05-07T00:08:15.009Z,12.67
2023-05-07T00:09:14.977Z,12.75
2023-05-07T00:10:14.970Z,12.75
2023-05-07T00:11:14.955Z,12.68
2023-05-07T00:12:14.987Z,12.62
2023-05-07T00:13:15.011Z,12.61
2023-05-07T00:14:14.942Z,12.61
2023-05-07T00:15:14.935Z,12.65
2023-05-07T00:16:14.953Z,12.76
2023-05-07T00:17:14.947Z,12.70
2023-05-07T00:18:14.914Z,12.68
2023-05-07T00:19:14.908Z,12.65
2023-05-07T00:20:14.904Z,12.73
2023-05-07T00:21:15.032Z,12.73
2023-05-07T00:22:14.921Z,12.65
2023-05-07T00:23:14.871Z,12.75
2023-05-07T00:24:14.864Z,12.64
2023-05-07T00:25:14.856Z,12.73
2023-05-07T00:26:14.850Z,12.64
2023-05-07T00:27:14.863Z,12.72
2023-05-07T00:28:14.830Z,12.68
2023-05-07T00:29:14.821Z,12.64
2023-05-07T00:30:14.816Z,12.70
2023-05-07T00:31:14.843Z,12.60
2023-05-07T00:32:14.863Z,12.61
2023-05-07T00:33:14.811Z,12.68
2023-05-07T00:34:14.788Z,12.64
2023-05-07T00:35:14.776Z,12.65
2023-05-07T00:36:14.802Z,12.70
2023-05-07T00:37:14.811Z,12.65
2023-05-07T00:38:14.755Z,12.57
2023-05-07T00:39:14.762Z,12.67
2023-05-07T00:40:14.738Z,12.68
2023-05-07T00:41:14.767Z,12.65
2023-05-07T00:42:14.727Z,12.70
2023-05-07T00:43:14.717Z,12.76
2023-05-07T00:44:14.713Z,12.62
2023-05-07T00:45:14.732Z,12.73
2023-05-07T00:46:14.749Z,12.64
2023-05-07T00:47:14.685Z,12.61
2023-05-07T00:48:15.259Z,12.62
2023-05-07T00:49:14.670Z,12.73
2023-05-07T00:50:14.782Z,12.64
2023-05-07T00:51:14.655Z,12.62
2023-05-07T00:52:14.658Z,12.58
2023-05-07T00:53:14.702Z,12.75
2023-05-07T00:54:14.629Z,12.64
2023-05-07T00:55:14.645Z,12.61
2023-05-07T00:56:14.619Z,12.55
2023-05-07T00:57:14.637Z,12.61
2023-05-07T00:58:14.596Z,12.65
2023-05-07T00:59:14.621Z,12.57
2023-05-07T01:00:14.929Z,12.65
2023-05-07T01:01:14.588Z,12.60
2023-05-07T01:02:14.557Z,12.65
2023-05-07T01:03:14.555Z,12.58
2023-05-07T01:04:14.653Z,12.65
2023-05-07T01:05:14.566Z,12.64
2023-05-07T01:06:14.567Z,12.60
2023-05-07T01:07:14.533Z,12.58
2023-05-07T01:08:14.524Z,12.61
2023-05-07T01:09:14.593Z,12.67
2023-05-07T01:10:14.680Z,12.64
2023-05-07T01:11:14.495Z,12.55
2023-05-07T01:12:14.492Z,12.60
2023-05-07T01:13:14.521Z,12.60
2023-05-07T01:14:14.504Z,12.54
2023-05-07T01:15:14.470Z,12.54
2023-05-07T01:16:14.461Z,12.47
2023-05-07T01:17:14.562Z,12.43
2023-05-07T01:18:14.456Z,12.54
2023-05-07T01:19:14.465Z,12.47
2023-05-07T01:20:14.653Z,12.47
2023-05-07T01:21:14.417Z,12.58
2023-05-07T01:22:14.415Z,12.49
2023-05-07T01:23:14.440Z,12.49
2023-05-07T01:24:14.443Z,12.42
2023-05-07T01:25:14.449Z,12.47
2023-05-07T01:26:14.385Z,12.46
2023-05-07T01:27:14.371Z,12.47
2023-05-07T01:28:14.407Z,12.47
2023-05-07T01:29:14.360Z,12.47
2023-05-07T01:30:14.473Z,12.43
2023-05-07T01:31:14.376Z,12.46
2023-05-07T01:32:14.344Z,12.42
2023-05-07T01:33:14.359Z,12.49
2023-05-07T01:34:14.315Z,12.54
2023-05-07T01:35:14.310Z,12.37
2023-05-07T01:36:14.328Z,12.45
2023-05-07T01:37:14.296Z,12.45
2023-05-07T01:38:14.321Z,12.32
2023-05-07T01:39:14.288Z,12.25
2023-05-07T01:40:14.276Z,12.31
2023-05-07T01:41:14.375Z,12.36
2023-05-07T01:42:14.274Z,12.36
2023-05-07T01:43:14.274Z,12.37
2023-05-07T01:44:14.246Z,12.29
2023-05-07T01:45:14.233Z,12.27
2023-05-07T01:46:14.280Z,12.29
2023-05-07T01:47:14.256Z,12.36
2023-05-07T01:48:14.205Z,12.31
2023-05-07T01:49:14.205Z,12.29
2023-05-07T01:50:14.360Z,12.20
2023-05-07T01:51:14.191Z,12.27
2023-05-07T01:52:14.204Z,12.20
2023-05-07T01:53:14.169Z,12.12
2023-05-07T01:54:14.169Z,12.09
2023-05-07T01:55:14.153Z,12.13
2023-05-07T01:56:14.145Z,12.07
2023-05-07T01:57:14.159Z,12.02
2023-05-07T01:58:14.132Z,12.06
2023-05-07T01:59:14.119Z,12.07
2023-05-07T02:00:14.138Z,11.99
2023-05-07T02:01:14.192Z,11.99
2023-05-07T02:02:14.179Z,11.97
2023-05-07T02:03:14.176Z,12.03
2023-05-07T02:04:14.242Z,12.03
2023-05-07T02:05:14.074Z,12.02
2023-05-07T02:06:14.106Z,11.99
2023-05-07T02:07:14.063Z,11.86
2023-05-07T02:08:14.057Z,12.02
2023-05-07T02:09:14.047Z,11.97
2023-05-07T02:10:14.078Z,12.00
2023-05-07T02:11:14.051Z,11.87
2023-05-07T02:12:14.043Z,11.91
2023-05-07T02:13:14.122Z,11.84
2023-05-07T02:14:14.010Z,11.86
2023-05-07T02:15:14.031Z,11.90
2023-05-07T02:16:14.023Z,11.88
2023-05-07T02:17:13.984Z,11.86
2023-05-07T02:18:13.984Z,11.90
2023-05-07T02:19:13.984Z,11.84
2023-05-07T02:20:13.990Z,11.80
2023-05-07T02:21:13.955Z,11.78
2023-05-07T02:22:13.952Z,11.78
2023-05-07T02:23:13.940Z,11.77
2023-05-07T02:24:13.933Z,11.73
2023-05-07T02:25:13.951Z,11.73
2023-05-07T02:26:13.915Z,11.77
2023-05-07T02:27:13.911Z,11.73
2023-05-07T02:28:13.902Z,11.83
2023-05-07T02:29:14.099Z,11.75
2023-05-07T02:30:13.904Z,11.75
2023-05-07T02:31:14.878Z,11.78
2023-05-07T02:32:13.934Z,11.78
2023-05-07T02:33:13.892Z,11.73
2023-05-07T02:34:13.908Z,11.75
2023-05-07T02:35:13.845Z,11.78
2023-05-07T02:36:13.844Z,11.81
2023-05-07T02:37:13.835Z,11.72
2023-05-07T02:38:13.820Z,11.73
2023-05-07T02:39:13.833Z,11.80
2023-05-07T02:40:13.955Z,11.69
2023-05-07T02:41:13.800Z,11.75
2023-05-07T02:42:13.794Z,11.73
2023-05-07T02:43:13.791Z,11.77
2023-05-07T02:44:13.806Z,11.68
2023-05-07T02:45:13.874Z,11.68
2023-05-07T02:46:13.805Z,11.66
2023-05-07T02:47:13.752Z,11.63
2023-05-07T02:48:13.769Z,11.66
2023-05-07T02:49:13.763Z,11.60
2023-05-07T02:50:13.999Z,11.68
2023-05-07T02:51:13.742Z,11.70
2023-05-07T02:52:13.715Z,11.57
2023-05-07T02:53:13.735Z,11.55
2023-05-07T02:54:13.708Z,11.68
2023-05-07T02:55:13.696Z,11.63
2023-05-07T02:56:13.690Z,11.59
2023-05-07T02:57:13.678Z,11.59
2023-05-07T02:58:13.690Z,11.62
2023-05-07T02:59:13.665Z,11.66
2023-05-07T03:00:13.652Z,11.59
2023-05-07T03:01:13.716Z,11.60
2023-05-07T03:02:13.670Z,11.55
2023-05-07T03:03:13.688Z,11.70
2023-05-07T03:04:13.672Z,11.62
2023-05-07T03:05:13.650Z,11.62
2023-05-07T03:06:13.606Z,11.65
2023-05-07T03:07:13.637Z,11.66
2023-05-07T03:08:13.589Z,11.62
2023-05-07T03:09:13.583Z,11.60
2023-05-07T03:10:13.651Z,11.60
2023-05-07T03:11:13.570Z,11.63
2023-05-07T03:12:13.584Z,11.55
2023-05-07T03:13:13.629Z,11.51
2023-05-07T03:14:13.552Z,11.51
2023-05-07T03:15:13.608Z,11.65
2023-05-07T03:16:13.579Z,11.51
2023-05-07T03:17:13.599Z,11.60
2023-05-07T03:18:13.642Z,11.59
2023-05-07T03:19:13.509Z,11.55
2023-05-07T03:20:13.702Z,11.52
2023-05-07T03:21:13.512Z,11.60
2023-05-07T03:22:13.500Z,11.48
2023-05-07T03:23:13.461Z,11.48
2023-05-07T03:24:14.457Z,11.36
2023-05-07T03:25:13.454Z,11.43
2023-05-07T03:26:13.476Z,11.45
2023-05-07T03:27:13.459Z,11.41
2023-05-07T03:28:13.437Z,11.33
2023-05-07T03:29:13.438Z,11.44
2023-05-07T03:30:13.484Z,11.43
2023-05-07T03:31:13.481Z,11.36
2023-05-07T03:32:13.400Z,11.33
2023-05-07T03:33:13.449Z,11.44
2023-05-07T03:34:13.392Z,11.37
2023-05-07T03:35:13.425Z,11.41
2023-05-07T03:36:13.393Z,11.35
2023-05-07T03:37:13.375Z,11.32
2023-05-07T03:38:13.356Z,11.32
2023-05-07T03:39:13.349Z,11.37
2023-05-07T03:40:13.631Z,11.30
2023-05-07T03:41:13.445Z,11.29
2023-05-07T03:42:13.322Z,11.33
2023-05-07T03:43:13.323Z,11.41
2023-05-07T03:44:13.312Z,11.30
2023-05-07T03:45:13.334Z,11.40
2023-05-07T03:46:13.311Z,11.32
2023-05-07T03:47:13.286Z,11.41
2023-05-07T03:48:13.328Z,11.41
2023-05-07T03:49:13.316Z,11.27
2023-05-07T03:50:13.501Z,11.36
2023-05-07T03:51:13.254Z,11.29
2023-05-07T03:52:13.244Z,11.37
2023-05-07T03:53:13.238Z,11.36
2023-05-07T03:54:13.259Z,11.37
2023-05-07T03:55:13.240Z,11.44
2023-05-07T03:56:13.228Z,11.41
2023-05-07T03:57:13.212Z,11.33
2023-05-07T03:58:13.210Z,11.41
2023-05-07T03:59:13.230Z,11.37
2023-05-07T04:00:13.514Z,11.33
2023-05-07T04:01:13.194Z,11.40
2023-05-07T04:02:13.225Z,11.40
2023-05-07T04:03:13.220Z,11.40
2023-05-07T04:04:13.340Z,11.41
2023-05-07T04:05:13.204Z,11.40
2023-05-07T04:06:13.140Z,11.40
2023-05-07T04:07:13.144Z,11.44
2023-05-07T04:08:13.158Z,11.48
2023-05-07T04:09:13.166Z,11.47
2023-05-07T04:10:13.311Z,11.47
2023-05-07T04:11:13.101Z,11.43
2023-05-07T04:12:13.087Z,11.43
2023-05-07T04:13:13.149Z,11.45
2023-05-07T04:14:13.085Z,11.48
2023-05-07T04:15:13.090Z,11.41
2023-05-07T04:16:13.093Z,11.37
2023-05-07T04:17:14.067Z,11.50
2023-05-07T04:18:13.073Z,11.41
2023-05-07T04:19:13.038Z,11.41
2023-05-07T04:20:13.268Z,11.48
2023-05-07T04:21:13.072Z,11.40
2023-05-07T04:22:13.080Z,11.54
2023-05-07T04:23:13.030Z,11.43
2023-05-07T04:24:13.002Z,11.48
2023-05-07T04:25:13.006Z,11.47
2023-05-07T04:26:12.983Z,11.55
2023-05-07T04:27:13.036Z,11.57
2023-05-07T04:28:12.979Z,11.45
2023-05-07T04:29:12.955Z,11.50
2023-05-07T04:30:13.158Z,11.52
2023-05-07T04:31:12.954Z,11.48
2023-05-07T04:32:12.991Z,11.47
2023-05-07T04:33:13.091Z,11.48
2023-05-07T04:34:12.925Z,11.43
2023-05-07T04:35:12.912Z,11.44
2023-05-07T04:36:12.935Z,11.40
2023-05-07T04:37:12.978Z,11.37
2023-05-07T04:38:12.897Z,11.40
2023-05-07T04:39:12.885Z,11.54
2023-05-07T04:40:13.108Z,11.41
2023-05-07T04:41:12.897Z,11.48
2023-05-07T04:42:12.859Z,11.51
2023-05-07T04:43:12.850Z,11.47
2023-05-07T04:44:12.855Z,11.52
2023-05-07T04:45:12.840Z,11.47
2023-05-07T04:46:12.978Z,11.50
2023-05-07T04:47:12.820Z,11.48
2023-05-07T04:48:12.812Z,11.47
2023-05-07T04:49:12.800Z,11.45
2023-05-07T04:50:13.145Z,11.51
2023-05-07T04:51:12.812Z,11.54
2023-05-07T04:52:12.781Z,11.48
2023-05-07T04:53:12.772Z,11.59
2023-05-07T04:54:12.762Z,11.52
2023-05-07T04:55:12.779Z,11.51
2023-05-07T04:56:12.769Z,11.55
2023-05-07T04:57:12.761Z,11.60
2023-05-07T04:58:12.720Z,11.59
2023-05-07T04:59:12.733Z,11.55
2023-05-07T05:00:12.995Z,11.44
2023-05-07T05:01:12.745Z,11.54
2023-05-07T05:02:12.706Z,11.50
2023-05-07T05:03:12.787Z,11.57
2023-05-07T05:04:12.723Z,11.43
2023-05-07T05:05:12.701Z,11.47
2023-05-07T05:06:12.669Z,11.59
2023-05-07T05:07:12.661Z,11.50
2023-05-07T05:08:12.660Z,11.62
2023-05-07T05:09:12.731Z,11.54
2023-05-07T05:10:12.836Z,11.54
2023-05-07T05:11:12.629Z,11.54
2023-05-07T05:12:12.629Z,11.47
2023-05-07T05:13:12.684Z,11.60
2023-05-07T05:14:12.639Z,11.50
2023-05-07T05:15:12.614Z,11.55
2023-05-07T05:16:12.612Z,11.55
2023-05-07T05:17:12.612Z,11.65
2023-05-07T05:18:12.612Z,11.65
2023-05-07T05:19:12.610Z,11.62
2023-05-07T05:20:12.736Z,11.60
2023-05-07T05:21:12.557Z,11.65
2023-05-07T05:22:12.556Z,11.60
2023-05-07T05:23:12.580Z,11.68
2023-05-07T05:24:12.550Z,11.66
2023-05-07T05:25:12.608Z,11.66
2023-05-07T05:26:12.513Z,11.66
2023-05-07T05:27:12.518Z,11.55
2023-05-07T05:28:12.538Z,11.68
2023-05-07T05:29:12.497Z,11.65
2023-05-07T05:30:12.674Z,11.66
2023-05-07T05:31:12.538Z,11.68
2023-05-07T05:32:12.500Z,11.73
2023-05-07T05:33:12.541Z,11.70
2023-05-07T05:34:12.462Z,11.59
2023-05-07T05:35:12.460Z,11.69
2023-05-07T05:36:12.445Z,11.65
2023-05-07T05:37:12.459Z,11.65
2023-05-07T05:38:12.441Z,11.68
2023-05-07T05:39:12.424Z,11.70
2023-05-07T05:40:12.534Z,11.70
2023-05-07T05:41:12.398Z,11.62
2023-05-07T05:42:12.417Z,11.75
2023-05-07T05:43:12.390Z,11.63
2023-05-07T05:44:12.379Z,11.60
2023-05-07T05:45:12.385Z,11.68
2023-05-07T05:46:12.405Z,11.72
2023-05-07T05:47:12.382Z,11.63
2023-05-07T05:48:12.413Z,11.68
2023-05-07T05:49:12.347Z,11.63
2023-05-07T05:50:12.505Z,11.65
2023-05-07T05:51:12.364Z,11.68
2023-05-07T05:52:12.321Z,11.66
2023-05-07T05:53:12.313Z,11.77
2023-05-07T05:54:12.367Z,11.72
2023-05-07T05:55:12.307Z,11.68
2023-05-07T05:56:12.323Z,11.54
2023-05-07T05:57:12.282Z,11.62
2023-05-07T05:58:12.274Z,11.73
2023-05-07T05:59:12.315Z,11.68
2023-05-07T06:00:12.513Z,11.62
2023-05-07T06:01:12.275Z,11.62
2023-05-07T06:02:12.296Z,11.57
2023-05-07T06:03:14.312Z,11.57
2023-05-07T06:04:12.232Z,11.59
2023-05-07T06:05:12.332Z,11.63
2023-05-07T06:06:12.207Z,11.70
2023-05-07T06:07:12.212Z,11.78
2023-05-07T06:08:12.203Z,11.73
2023-05-07T06:09:13.218Z,11.81
2023-05-07T06:10:12.372Z,11.84
2023-05-07T06:11:12.169Z,11.83
2023-05-07T06:12:12.162Z,11.86
2023-05-07T06:13:12.208Z,11.84
2023-05-07T06:14:12.149Z,11.88
2023-05-07T06:15:12.179Z,11.94
2023-05-07T06:16:12.146Z,11.81
2023-05-07T06:17:12.132Z,11.90
2023-05-07T06:18:12.151Z,11.94
2023-05-07T06:19:12.140Z,11.90
2023-05-07T06:20:12.333Z,11.84
2023-05-07T06:21:12.087Z,11.84
2023-05-07T06:22:12.073Z,11.95
2023-05-07T06:23:13.093Z,11.87
2023-05-07T06:24:12.103Z,11.91
2023-05-07T06:25:12.064Z,11.90
2023-05-07T06:26:12.074Z,11.86
2023-05-07T06:27:12.049Z,11.86
2023-05-07T06:28:12.035Z,11.95
2023-05-07T06:29:12.251Z,11.86
2023-05-07T06:30:12.271Z,11.90
2023-05-07T06:31:12.021Z,11.86
2023-05-07T06:32:12.145Z,11.80
2023-05-07T06:33:12.098Z,11.99
2023-05-07T06:34:12.020Z,11.88
2023-05-07T06:35:11.983Z,12.00
2023-05-07T06:36:11.991Z,11.88
2023-05-07T06:37:11.979Z,11.83
2023-05-07T06:38:11.981Z,11.84
2023-05-07T06:39:11.950Z,11.90
2023-05-07T06:40:12.111Z,11.75
2023-05-07T06:41:11.957Z,11.81
2023-05-07T06:42:11.934Z,11.77
2023-05-07T06:43:11.950Z,11.84
2023-05-07T06:44:11.922Z,11.78
2023-05-07T06:45:11.920Z,11.81
2023-05-07T06:46:11.937Z,11.83
2023-05-07T06:47:13.805Z,11.86
2023-05-07T06:48:11.919Z,11.88
2023-05-07T06:49:11.868Z,11.88
2023-05-07T06:50:12.941Z,11.91
2023-05-07T06:51:11.860Z,11.80
2023-05-07T06:52:11.881Z,11.80
2023-05-07T06:53:11.847Z,11.90
2023-05-07T06:54:11.834Z,11.87
2023-05-07T06:55:11.831Z,12.02
2023-05-07T06:56:11.823Z,11.86
2023-05-07T06:57:11.853Z,11.86
2023-05-07T06:58:11.816Z,12.00
2023-05-07T06:59:11.813Z,11.86
2023-05-07T07:00:12.012Z,11.84
2023-05-07T07:01:11.833Z,11.99
2023-05-07T07:02:11.803Z,12.00
2023-05-07T07:03:11.777Z,11.95
2023-05-07T07:04:11.784Z,12.00
2023-05-07T07:05:11.809Z,11.95
2023-05-07T07:06:11.768Z,11.88
2023-05-07T07:07:11.757Z,11.90
2023-05-07T07:08:11.735Z,12.02
2023-05-07T07:09:11.716Z,12.07
2023-05-07T07:10:11.908Z,11.90
2023-05-07T07:11:11.742Z,11.95
2023-05-07T07:12:12.697Z,12.03
2023-05-07T07:13:11.719Z,12.00
2023-05-07T07:14:11.676Z,12.04
2023-05-07T07:15:11.679Z,12.07
2023-05-07T07:16:11.716Z,11.95
2023-05-07T07:17:11.707Z,11.94
2023-05-07T07:18:11.672Z,12.06
2023-05-07T07:19:11.651Z,12.09
2023-05-07T07:20:12.219Z,12.21
2023-05-07T07:21:12.649Z,12.07
2023-05-07T07:22:11.614Z,12.12
2023-05-07T07:23:11.611Z,12.12
2023-05-07T07:24:11.600Z,12.12
2023-05-07T07:25:11.609Z,12.06
2023-05-07T07:26:12.628Z,12.10
2023-05-07T07:27:11.585Z,12.18
2023-05-07T07:28:11.582Z,12.24
2023-05-07T07:29:11.558Z,12.28
2023-05-07T07:30:11.657Z,12.22
2023-05-07T07:31:11.575Z,12.27
2023-05-07T07:32:11.543Z,12.28
2023-05-07T07:33:11.560Z,12.21
2023-05-07T07:34:11.524Z,12.25
2023-05-07T07:35:11.540Z,12.35
2023-05-07T07:36:11.508Z,12.49
2023-05-07T07:37:11.502Z,12.49
2023-05-07T07:38:11.491Z,12.46
2023-05-07T07:39:11.502Z,12.37
2023-05-07T07:40:11.683Z,12.46
2023-05-07T07:41:11.478Z,12.65
2023-05-07T07:42:11.450Z,12.68
2023-05-07T07:43:11.446Z,12.61
2023-05-07T07:44:12.633Z,12.54
2023-05-07T07:45:11.426Z,12.64
2023-05-07T07:46:11.424Z,12.47
2023-05-07T07:47:11.463Z,12.46
2023-05-07T07:48:11.452Z,12.47
2023-05-07T07:49:11.472Z,12.58
2023-05-07T07:50:12.735Z,12.47
2023-05-07T07:51:11.377Z,12.70
2023-05-07T07:52:11.375Z,12.82
2023-05-07T07:53:11.359Z,12.79
2023-05-07T07:54:11.383Z,12.73
2023-05-07T07:55:11.342Z,12.85
2023-05-07T07:56:11.350Z,12.86
2023-05-07T07:57:11.347Z,12.73
2023-05-07T07:58:11.340Z,12.76
2023-05-07T07:59:11.342Z,12.79
2023-05-07T08:00:11.501Z,12.73
2023-05-07T08:01:11.312Z,12.80
2023-05-07T08:02:11.433Z,12.72
2023-05-07T08:03:11.734Z,12.90
2023-05-07T08:04:11.444Z,12.78
2023-05-07T08:05:11.348Z,12.79
2023-05-07T08:06:11.275Z,12.94
2023-05-07T08:07:11.258Z,12.83
2023-05-07T08:08:11.281Z,12.86
2023-05-07T08:09:11.248Z,12.85
2023-05-07T08:10:11.452Z,13.01
2023-05-07T08:11:11.238Z,13.28
2023-05-07T08:12:11.225Z,13.22
2023-05-07T08:13:11.288Z,13.30
2023-05-07T08:14:11.222Z,13.11
2023-05-07T08:15:11.208Z,13.12
2023-05-07T08:16:11.192Z,13.33
2023-05-07T08:17:11.294Z,13.44
2023-05-07T08:18:11.228Z,13.49
2023-05-07T08:19:11.203Z,13.67
2023-05-07T08:20:11.285Z,13.81
2023-05-07T08:21:11.263Z,14.05
2023-05-07T08:22:11.178Z,14.11
2023-05-07T08:23:11.225Z,13.97
2023-05-07T08:24:11.157Z,13.92
2023-05-07T08:25:11.128Z,13.95
2023-05-07T08:26:11.123Z,13.87
2023-05-07T08:27:11.136Z,13.96
2023-05-07T08:28:11.109Z,13.92
2023-05-07T08:29:11.113Z,13.78
2023-05-07T08:30:11.255Z,13.89
2023-05-07T08:31:11.131Z,13.89
2023-05-07T08:32:11.104Z,13.85
2023-05-07T08:33:11.274Z,13.79
2023-05-07T08:34:11.060Z,13.85
2023-05-07T08:35:11.046Z,13.65
2023-05-07T08:36:11.080Z,13.57
2023-05-07T08:37:11.035Z,13.70
2023-05-07T08:38:11.051Z,13.81
2023-05-07T08:39:11.018Z,14.10
2023-05-07T08:40:13.698Z,14.07
2023-05-07T08:41:11.028Z,14.05
2023-05-07T08:42:10.999Z,13.97
2023-05-07T08:43:10.994Z,14.18
2023-05-07T08:44:10.981Z,14.22
2023-05-07T08:45:11.000Z,14.55
2023-05-07T08:46:10.998Z,14.79
2023-05-07T08:47:10.950Z,15.18
2023-05-07T08:48:11.012Z,15.82
2023-05-07T08:49:10.955Z,15.80
2023-05-07T08:50:11.151Z,15.80
2023-05-07T08:51:10.913Z,16.24
2023-05-07T08:52:10.931Z,16.43
2023-05-07T08:53:10.958Z,16.66
2023-05-07T08:54:10.901Z,16.38
2023-05-07T08:55:11.210Z,16.53
2023-05-07T08:56:10.897Z,16.60
2023-05-07T08:57:10.905Z,16.61
2023-05-07T08:58:10.887Z,16.74
2023-05-07T08:59:10.892Z,17.08
2023-05-07T09:00:10.891Z,16.86
2023-05-07T09:01:10.843Z,16.53
2023-05-07T09:02:10.906Z,16.51
2023-05-07T09:03:10.889Z,16.46
2023-05-07T09:04:10.961Z,16.24
2023-05-07T09:05:11.071Z,15.92
2023-05-07T09:06:10.813Z,15.95
2023-05-07T09:07:10.796Z,16.42
2023-05-07T09:08:10.784Z,16.23
2023-05-07T09:09:10.998Z,16.05
2023-05-07T09:10:10.909Z,15.57
2023-05-07T09:11:10.761Z,15.31
2023-05-07T09:12:10.751Z,15.52
2023-05-07T09:13:10.775Z,15.52
2023-05-07T09:14:10.772Z,15.44
2023-05-07T09:15:10.919Z,15.52
2023-05-07T09:16:10.777Z,15.27
2023-05-07T09:17:10.723Z,15.36
2023-05-07T09:18:10.723Z,15.28
2023-05-07T09:19:10.730Z,15.44
2023-05-07T09:20:11.364Z,15.28
2023-05-07T09:21:11.701Z,14.85
2023-05-07T09:22:10.667Z,14.73
2023-05-07T09:23:10.710Z,15.02
2023-05-07T09:24:10.654Z,15.04
2023-05-07T09:25:11.058Z,15.15
2023-05-07T09:26:10.648Z,15.09
2023-05-07T09:27:10.629Z,14.97
2023-05-07T09:28:10.637Z,14.73
2023-05-07T09:29:10.610Z,14.69
2023-05-07T09:30:10.602Z,14.72
2023-05-07T09:31:10.674Z,14.72
2023-05-07T09:32:10.646Z,14.70
2023-05-07T09:33:10.635Z,14.85
2023-05-07T09:34:10.579Z,15.04
2023-05-07T09:35:10.733Z,15.19
2023-05-07T09:36:10.560Z,15.35
2023-05-07T09:37:10.566Z,15.55
2023-05-07T09:38:10.539Z,15.54
2023-05-07T09:39:10.540Z,15.61
2023-05-07T09:40:10.529Z,15.67
2023-05-07T09:41:10.633Z,15.70
2023-05-07T09:42:10.534Z,15.58
2023-05-07T09:43:10.499Z,15.51
2023-05-07T09:44:10.504Z,15.57
2023-05-07T09:45:10.666Z,15.31
2023-05-07T09:46:10.514Z,15.19
2023-05-07T09:47:10.499Z,15.02
2023-05-07T09:48:10.530Z,15.10
2023-05-07T09:49:11.257Z,15.21
2023-05-07T09:50:11.472Z,15.31
2023-05-07T09:51:10.478Z,15.36
2023-05-07T09:52:10.458Z,15.36
2023-05-07T09:53:10.427Z,15.36
2023-05-07T09:54:10.415Z,15.62
2023-05-07T09:55:10.528Z,15.68
2023-05-07T09:56:10.424Z,15.72
2023-05-07T09:57:10.447Z,15.61
2023-05-07T09:58:10.384Z,15.72
2023-05-07T09:59:10.384Z,15.91
2023-05-07T10:00:10.369Z,16.08
2023-05-07T10:01:10.446Z,16.10
2023-05-07T10:02:10.349Z,16.10
2023-05-07T10:03:10.437Z,16.33
2023-05-07T10:04:10.351Z,16.17
2023-05-07T10:05:10.579Z,16.00
2023-05-07T10:06:10.345Z,15.97
2023-05-07T10:07:10.313Z,15.83
2023-05-07T10:08:10.308Z,15.88
2023-05-07T10:09:10.295Z,15.84
2023-05-07T10:10:10.316Z,15.77
2023-05-07T10:11:10.301Z,15.88
2023-05-07T10:12:10.291Z,15.92
2023-05-07T10:13:10.421Z,15.86
2023-05-07T10:14:10.255Z,15.92
2023-05-07T10:15:10.582Z,15.83
2023-05-07T10:16:10.244Z,15.83
2023-05-07T10:17:10.321Z,15.86
2023-05-07T10:18:10.358Z,15.94
2023-05-07T10:19:10.226Z,15.94
2023-05-07T10:20:10.231Z,15.68
2023-05-07T10:21:10.209Z,15.68
2023-05-07T10:22:10.250Z,15.86
2023-05-07T10:23:10.182Z,16.02
2023-05-07T10:24:10.180Z,16.42
2023-05-07T10:25:10.544Z,16.21
2023-05-07T10:26:10.161Z,16.08
2023-05-07T10:27:10.164Z,15.98
2023-05-07T10:28:10.204Z,16.13
2023-05-07T10:29:10.161Z,16.04
2023-05-07T10:30:10.167Z,16.13
2023-05-07T10:31:10.151Z,16.09
2023-05-07T10:32:10.148Z,16.04
2023-05-07T10:33:10.244Z,16.05
2023-05-07T10:34:10.156Z,15.88
2023-05-07T10:35:10.248Z,16.01
2023-05-07T10:36:10.084Z,16.21
2023-05-07T10:37:10.080Z,16.23
2023-05-07T10:38:10.074Z,16.20
2023-05-07T10:39:10.086Z,16.24
2023-05-07T10:40:10.071Z,16.24
2023-05-07T10:41:10.101Z,16.28
2023-05-07T10:42:10.051Z,16.24
2023-05-07T10:43:11.152Z,16.13
2023-05-07T10:44:11.050Z,16.10
2023-05-07T10:45:10.101Z,16.26
2023-05-07T10:46:10.088Z,16.61
2023-05-07T10:47:10.000Z,16.57
2023-05-07T10:48:25.075Z,16.68
2023-05-07T10:49:11.985Z,16.58
2023-05-07T10:50:10.000Z,16.57
2023-05-07T10:51:09.971Z,16.56
2023-05-07T10:52:09.970Z,16.69
2023-05-07T10:53:09.999Z,16.42
2023-05-07T10:54:09.946Z,16.64
2023-05-07T10:55:10.099Z,16.61
2023-05-07T10:56:09.931Z,16.57
2023-05-07T10:57:09.940Z,16.56
2023-05-07T10:58:14.512Z,16.60
2023-05-07T10:59:11.903Z,16.57
2023-05-07T11:00:09.901Z,16.64
2023-05-07T11:01:10.030Z,16.68
2023-05-07T11:02:09.945Z,16.78
2023-05-07T11:03:09.915Z,16.54
2023-05-07T11:04:09.875Z,16.65
2023-05-07T11:05:10.125Z,16.60
2023-05-07T11:06:09.856Z,16.57
2023-05-07T11:07:09.880Z,16.39
2023-05-07T11:08:09.827Z,16.35
2023-05-07T11:09:09.833Z,16.39
2023-05-07T11:10:09.816Z,16.58
2023-05-07T11:11:09.829Z,16.81
2023-05-07T11:12:09.830Z,16.72
2023-05-07T11:13:09.811Z,16.66
2023-05-07T11:14:09.780Z,16.84
2023-05-07T11:15:09.900Z,16.91
2023-05-07T11:16:09.815Z,16.91
2023-05-07T11:17:09.859Z,16.99
2023-05-07T11:18:09.785Z,17.02
2023-05-07T11:19:09.745Z,17.05
2023-05-07T11:20:09.753Z,16.87
2023-05-07T11:21:09.751Z,16.79
2023-05-07T11:22:09.969Z,17.02
2023-05-07T11:23:09.717Z,17.04
2023-05-07T11:24:09.737Z,16.86
2023-05-07T11:25:09.990Z,16.87
2023-05-07T11:26:09.755Z,16.84
2023-05-07T11:27:09.697Z,17.02
2023-05-07T11:28:09.687Z,16.99
2023-05-07T11:29:09.672Z,16.89
2023-05-07T11:30:09.685Z,16.78
2023-05-07T11:31:09.718Z,16.90
2023-05-07T11:32:09.761Z,16.74
2023-05-07T11:33:09.729Z,16.72
2023-05-07T11:34:09.624Z,16.76
2023-05-07T11:35:09.672Z,17.08
2023-05-07T11:36:09.615Z,16.99
2023-05-07T11:37:09.613Z,16.96
2023-05-07T11:38:09.602Z,16.97
2023-05-07T11:39:09.590Z,16.79
2023-05-07T11:40:09.602Z,16.51
2023-05-07T11:41:09.577Z,16.43
2023-05-07T11:42:09.566Z,16.35
2023-05-07T11:43:09.553Z,16.50
2023-05-07T11:44:09.549Z,16.49
2023-05-07T11:45:09.696Z,16.41
2023-05-07T11:46:09.561Z,16.36
2023-05-07T11:47:09.528Z,16.26
2023-05-07T11:48:09.529Z,16.21
2023-05-07T11:49:09.547Z,16.23
2023-05-07T11:50:09.550Z,16.26
2023-05-07T11:51:09.490Z,16.39
2023-05-07T11:52:09.505Z,16.38
2023-05-07T11:53:09.482Z,16.50
2023-05-07T11:54:09.495Z,16.47
2023-05-07T11:55:09.631Z,16.53
2023-05-07T11:56:09.459Z,16.65
2023-05-07T11:57:09.449Z,16.39
2023-05-07T11:58:10.833Z,16.28
2023-05-07T11:59:10.461Z,16.53
2023-05-07T12:00:09.417Z,16.47
2023-05-07T12:01:09.419Z,16.32
2023-05-07T12:02:09.521Z,16.23
2023-05-07T12:03:09.607Z,16.26
2023-05-07T12:04:09.608Z,16.26
2023-05-07T12:05:09.565Z,16.20
2023-05-07T12:06:09.375Z,16.15
2023-05-07T12:07:09.368Z,16.33
2023-05-07T12:08:09.383Z,16.28
2023-05-07T12:09:09.348Z,16.20
2023-05-07T12:10:09.437Z,16.47
2023-05-07T12:11:09.346Z,16.46
2023-05-07T12:12:09.352Z,16.54
2023-05-07T12:13:09.378Z,16.57
2023-05-07T12:14:12.060Z,16.66
2023-05-07T12:15:10.519Z,16.58
2023-05-07T12:16:09.299Z,16.76
2023-05-07T12:17:09.349Z,16.84
2023-05-07T12:18:09.365Z,17.14
2023-05-07T12:19:09.287Z,17.23
2023-05-07T12:20:09.353Z,17.05
2023-05-07T12:21:09.301Z,16.93
2023-05-07T12:22:09.250Z,16.78
2023-05-07T12:23:09.263Z,16.65
2023-05-07T12:24:09.254Z,16.74
2023-05-07T12:25:09.299Z,16.83
2023-05-07T12:26:09.216Z,16.71
2023-05-07T12:27:09.256Z,16.97
2023-05-07T12:28:09.226Z,16.86
2023-05-07T12:29:09.195Z,16.79
2023-05-07T12:30:09.263Z,16.72
2023-05-07T12:31:09.267Z,16.64
2023-05-07T12:32:09.249Z,16.61
2023-05-07T12:33:09.223Z,16.68
2023-05-07T12:34:09.159Z,16.60
2023-05-07T12:35:09.221Z,16.74
2023-05-07T12:36:09.152Z,16.68
2023-05-07T12:37:09.151Z,16.68
2023-05-07T12:38:09.126Z,16.69
2023-05-07T12:39:09.121Z,16.69
2023-05-07T12:40:09.181Z,16.76
2023-05-07T12:41:09.136Z,16.68
2023-05-07T12:42:09.123Z,16.96
2023-05-07T12:43:09.104Z,16.99
2023-05-07T12:44:09.081Z,16.71
2023-05-07T12:45:09.223Z,16.61
2023-05-07T12:46:09.661Z,16.75
2023-05-07T12:47:09.059Z,16.96
2023-05-07T12:48:09.088Z,16.84
2023-05-07T12:49:09.076Z,16.78
2023-05-07T12:50:09.034Z,16.60
2023-05-07T12:51:09.053Z,16.49
2023-05-07T12:52:09.021Z,16.31